createdAt,value
2024-05-09T00:00:47.861Z,17.10
2024-05-09T00:03:16.066Z,19.83
2024-05-09T00:05:46.714Z,19.95
2024-05-09T00:08:17.108Z,20.60
2024-05-09T00:10:44.898Z,21.48
2024-05-09T00:13:15.463Z,20.50
2024-05-09T00:15:43.161Z,20.95
2024-05-09T00:18:11.243Z,21.05
2024-05-09T00:20:41.410Z,22.45
2024-05-09T00:23:09.604Z,18.95
2024-05-09T00:25:38.204Z,23.75
2024-05-09T00:28:06.683Z,25.35
2024-05-09T00:30:37.613Z,27.35
2024-05-09T00:33:06.957Z,24.92
2024-05-09T00:35:35.965Z,30.55
2024-05-09T00:38:05.945Z,29.40
2024-05-09T00:40:39.860Z,29.92
2024-05-09T00:43:13.009Z,30.60
2024-05-09T00:45:44.958Z,29.85
2024-05-09T00:48:18.602Z,29.23
2024-05-09T00:50:49.872Z,27.58
2024-05-09T00:53:19.349Z,28.98
2024-05-09T00:55:48.185Z,32.45
2024-05-09T00:58:20.587Z,30.25
2024-05-09T01:00:51.629Z,31.42
2024-05-09T01:03:20.358Z,28.02
2024-05-09T01:05:48.754Z,29.98
2024-05-09T01:08:16.870Z,30.85
2024-05-09T01:10:48.439Z,30.35
2024-05-09T01:13:16.954Z,28.08
2024-05-09T01:16:08.228Z,27.85
2024-05-09T01:18:38.721Z,30.95
2024-05-09T01:21:09.606Z,29.17
2024-05-09T01:23:42.064Z,33.70
2024-05-09T01:26:09.833Z,30.75
2024-05-09T01:28:37.692Z,26.55
2024-05-09T01:31:05.344Z,29.42
2024-05-09T01:33:33.247Z,29.90
2024-05-09T01:36:00.866Z,26.83
2024-05-09T01:38:28.549Z,30.40
2024-05-09T01:40:59.252Z,24.75
2024-05-09T01:43:26.953Z,27.23
2024-05-09T01:45:54.542Z,25.30
2024-05-09T01:48:22.510Z,28.55
2024-05-09T01:50:50.229Z,23.80
2024-05-09T01:53:18.188Z,29.27
2024-05-09T01:55:45.999Z,29.52
2024-05-09T01:58:16.594Z,29.63
2024-05-09T02:00:46.557Z,34.20
2024-05-09T02:03:16.977Z,26.00
2024-05-09T02:05:47.427Z,29.23
2024-05-09T02:08:17.323Z,27.00
2024-05-09T02:10:47.460Z,30.92
2024-05-09T02:13:20.289Z,32.20
2024-05-09T02:15:52.472Z,29.23
2024-05-09T02:18:23.179Z,28.95
2024-05-09T02:20:50.914Z,26.05
2024-05-09T02:23:20.115Z,28.77
2024-05-09T02:25:48.010Z,30.85
2024-05-09T02:28:21.568Z,26.25
2024-05-09T02:30:51.800Z,27.60
2024-05-09T02:33:19.759Z,27.88
2024-05-09T02:35:47.546Z,31.83
2024-05-09T02:38:17.871Z,27.75
2024-05-09T02:40:48.219Z,29.48
2024-05-09T02:43:20.926Z,27.88
2024-05-09T02:45:48.464Z,29.25
2024-05-09T02:48:19.405Z,29.00
2024-05-09T02:50:47.201Z,27.70
2024-05-09T02:53:15.080Z,30.98
2024-05-09T02:55:43.716Z,30.08
2024-05-09T02:58:12.277Z,29.15
2024-05-09T03:00:43.262Z,27.73
2024-05-09T03:03:14.053Z,30.48
2024-05-09T03:05:43.359Z,27.60
2024-05-09T03:08:12.017Z,26.88
2024-05-09T03:10:40.441Z,27.17
2024-05-09T03:13:08.469Z,29.52
2024-05-09T03:18:07.245Z,26.48
2024-05-09T03:20:36.482Z,29.90
2024-05-09T03:23:06.605Z,27.95
2024-05-09T03:25:34.572Z,30.55
2024-05-09T03:30:36.368Z,33.83
2024-05-09T03:33:15.587Z,30.70
2024-05-09T03:35:43.983Z,30.42
2024-05-09T03:38:14.262Z,29.58
2024-05-09T03:40:46.349Z,33.30
2024-05-09T03:43:14.469Z,35.53
2024-05-09T03:45:42.687Z,37.25
2024-05-09T03:48:13.196Z,37.30
2024-05-09T03:50:44.119Z,38.05
2024-05-09T03:53:13.128Z,37.45
2024-05-09T03:55:40.912Z,36.95
2024-05-09T03:58:09.251Z,40.47
2024-05-09T04:00:40.091Z,40.72
2024-05-09T04:03:11.171Z,36.63
2024-05-09T04:05:46.185Z,39.15
2024-05-09T04:08:17.589Z,40.22
2024-05-09T04:10:46.116Z,42.72
2024-05-09T04:13:13.994Z,41.75
2024-05-09T04:15:41.823Z,41.25
2024-05-09T04:18:09.809Z,40.17
2024-05-09T04:20:40.431Z,36.55
2024-05-09T04:23:13.973Z,35.83
2024-05-09T04:25:43.253Z,38.88
2024-05-09T04:28:11.071Z,39.40
2024-05-09T04:30:41.500Z,39.10
2024-05-09T04:33:12.468Z,41.33
2024-05-09T04:35:42.859Z,34.72
2024-05-09T04:38:14.886Z,40.35
2024-05-09T04:40:42.992Z,42.47
2024-05-09T04:43:17.621Z,36.20
2024-05-09T04:45:45.793Z,37.63
2024-05-09T04:48:13.642Z,38.00
2024-05-09T04:50:42.208Z,38.92
2024-05-09T04:53:15.939Z,38.08
2024-05-09T04:55:43.723Z,40.03
2024-05-09T04:58:12.139Z,38.38
2024-05-09T05:00:40.912Z,37.38
2024-05-09T05:03:13.114Z,39.13
2024-05-09T05:08:18.954Z,36.42
2024-05-09T05:10:48.662Z,36.88
2024-05-09T05:13:18.530Z,38.90
2024-05-09T05:15:47.559Z,36.72
2024-05-09T05:18:16.086Z,36.38
2024-05-09T05:20:44.845Z,32.95
2024-05-09T05:23:14.275Z,34.95
2024-05-09T05:25:48.092Z,33.30
2024-05-09T05:28:19.250Z,31.50
2024-05-09T05:30:47.677Z,31.02
2024-05-09T05:33:19.982Z,30.30
2024-05-09T05:35:48.291Z,34.63
2024-05-09T05:40:46.552Z,30.17
2024-05-09T05:43:18.168Z,30.23
2024-05-09T05:45:46.538Z,32.97
2024-05-09T05:48:17.162Z,29.50
2024-05-09T05:50:46.241Z,29.50
2024-05-09T05:53:14.370Z,33.17
2024-05-09T05:55:42.868Z,28.70
2024-05-09T05:58:15.204Z,30.75
2024-05-09T06:00:43.346Z,29.05
2024-05-09T06:03:13.012Z,30.50
2024-05-09T06:05:44.118Z,26.90
2024-05-09T06:08:12.707Z,29.52
2024-05-09T06:10:41.698Z,27.10
2024-05-09T06:13:13.605Z,26.13
2024-05-09T06:15:42.586Z,24.85
2024-05-09T06:18:12.368Z,28.23
2024-05-09T06:20:45.343Z,29.75
2024-05-09T06:23:13.444Z,23.75
2024-05-09T06:25:42.805Z,26.55
2024-05-09T06:28:13.451Z,26.88
2024-05-09T06:30:42.606Z,26.55
2024-05-09T06:33:14.917Z,24.75
2024-05-09T06:35:45.096Z,27.60
2024-05-09T06:38:13.032Z,23.65
2024-05-09T06:43:17.566Z,24.08
2024-05-09T06:45:48.355Z,22.38
2024-05-09T06:48:19.724Z,20.70
2024-05-09T06:50:48.599Z,21.67
2024-05-09T06:53:17.650Z,22.13
2024-05-09T06:55:49.220Z,21.67
2024-05-09T06:58:19.897Z,23.13
2024-05-09T07:00:49.093Z,20.05
2024-05-09T07:03:18.566Z,18.38
2024-05-09T07:05:49.921Z,23.10
2024-05-09T07:08:19.852Z,18.85
2024-05-09T07:10:49.041Z,21.05
2024-05-09T07:13:20.018Z,18.40
2024-05-09T07:15:47.732Z,19.00
2024-05-09T07:18:21.580Z,20.77
2024-05-09T07:20:50.618Z,17.67
2024-05-09T07:23:19.212Z,17.98
2024-05-09T07:25:47.389Z,16.95
2024-05-09T07:28:21.424Z,16.90
2024-05-09T07:30:49.284Z,18.00
2024-05-09T07:33:17.882Z,17.33
2024-05-09T07:35:46.484Z,16.80
2024-05-09T07:38:14.211Z,16.33
2024-05-09T07:40:42.103Z,16.50
2024-05-09T07:43:13.472Z,16.40
2024-05-09T07:45:52.507Z,15.45
2024-05-09T07:52:37.903Z,15.48
2024-05-09T07:53:47.236Z,14.50
2024-05-09T07:56:28.004Z,16.15
2024-05-09T07:58:56.368Z,15.82
2024-05-09T08:01:27.549Z,14.18
2024-05-09T08:03:59.282Z,15.13
2024-05-09T08:06:27.211Z,17.10
2024-05-09T08:08:55.335Z,15.32
2024-05-09T08:14:08.039Z,16.83
2024-05-09T08:16:39.697Z,13.95
2024-05-09T08:19:07.465Z,14.93
2024-05-09T08:21:35.569Z,17.42
2024-05-09T08:24:03.417Z,17.05
2024-05-09T08:26:31.044Z,18.27
2024-05-09T08:28:59.065Z,13.95
2024-05-09T08:31:29.378Z,17.70
2024-05-09T08:34:00.175Z,13.07
2024-05-09T08:36:28.216Z,14.73
2024-05-09T08:38:57.393Z,13.65
2024-05-09T08:41:25.417Z,17.65
2024-05-09T08:43:57.711Z,14.18
2024-05-09T08:46:29.446Z,14.30
2024-05-09T08:49:02.063Z,15.40
2024-05-09T08:51:30.193Z,16.17
2024-05-09T08:53:58.295Z,15.95
2024-05-09T08:56:28.594Z,14.15
2024-05-09T08:59:01.060Z,14.73
2024-05-09T09:01:32.246Z,12.65
2024-05-09T09:04:04.749Z,13.82
2024-05-09T09:06:35.216Z,18.10
2024-05-09T09:09:04.566Z,14.73
2024-05-09T09:11:33.782Z,18.40
2024-05-09T09:14:01.885Z,17.02
2024-05-09T09:16:35.040Z,15.80
2024-05-09T09:19:05.780Z,15.57
2024-05-09T09:21:33.401Z,15.80
2024-05-09T09:24:01.021Z,16.63
2024-05-09T09:26:32.506Z,18.83
2024-05-09T09:29:01.520Z,17.55
2024-05-09T09:31:30.504Z,16.45
2024-05-09T09:34:09.368Z,16.70
2024-05-09T09:36:41.509Z,13.95
2024-05-09T09:39:10.104Z,15.80
2024-05-09T09:41:39.674Z,16.00
2024-05-09T09:44:09.468Z,16.20
2024-05-09T09:46:38.549Z,15.48
2024-05-09T09:49:10.321Z,13.70
2024-05-09T09:51:43.995Z,15.05
2024-05-09T09:54:12.638Z,16.10
2024-05-09T09:56:41.741Z,14.50
2024-05-09T09:59:13.484Z,17.75
2024-05-09T10:01:42.296Z,16.60
2024-05-09T10:04:16.143Z,12.50
2024-05-09T10:06:47.023Z,16.10
2024-05-09T10:09:16.918Z,16.80
2024-05-09T10:11:49.214Z,14.43
2024-05-09T10:14:22.765Z,16.73
2024-05-09T10:16:53.048Z,15.57
2024-05-09T10:22:04.215Z,15.23
2024-05-09T10:24:47.509Z,16.38
2024-05-09T10:27:15.552Z,14.63
2024-05-09T10:29:52.461Z,16.00
2024-05-09T10:32:20.324Z,12.70
2024-05-09T10:35:11.948Z,13.85
2024-05-09T10:37:39.684Z,14.20
2024-05-09T10:42:50.997Z,12.13
2024-05-09T10:45:19.245Z,12.98
2024-05-09T10:47:47.449Z,12.77
2024-05-09T10:50:25.450Z,13.18
2024-05-09T10:52:59.189Z,13.50
2024-05-09T10:55:27.584Z,12.65
2024-05-09T10:57:55.695Z,16.15
2024-05-09T11:00:30.368Z,17.73
2024-05-09T11:03:03.167Z,17.65
2024-05-09T11:08:01.762Z,19.27
2024-05-09T11:10:34.320Z,19.33
2024-05-09T11:13:02.317Z,19.63
2024-05-09T11:18:06.565Z,16.08
2024-05-09T11:20:39.665Z,18.33
2024-05-09T11:23:08.284Z,17.85
2024-05-09T11:25:36.335Z,20.13
2024-05-09T11:28:04.573Z,16.05
2024-05-09T11:30:35.454Z,18.55
2024-05-09T11:33:03.671Z,19.02
2024-05-09T11:35:31.429Z,20.08
2024-05-09T11:38:01.784Z,17.13
2024-05-09T11:40:34.189Z,16.20
2024-05-09T11:43:02.389Z,18.50
2024-05-09T11:47:58.093Z,18.55
2024-05-09T11:50:32.846Z,16.08
2024-05-09T11:53:06.397Z,19.10
2024-05-09T11:55:36.980Z,17.60
2024-05-09T11:58:08.693Z,18.38
2024-05-09T12:00:37.855Z,15.60
2024-05-09T12:03:08.232Z,23.27
2024-05-09T12:05:38.951Z,16.95
2024-05-09T12:08:09.611Z,16.58
2024-05-09T12:10:37.865Z,17.52
2024-05-09T12:13:07.148Z,16.60
2024-05-09T12:15:38.002Z,17.33
2024-05-09T12:18:08.099Z,16.92
2024-05-09T12:20:39.061Z,18.40
2024-05-09T12:23:11.014Z,17.30
2024-05-09T12:25:40.074Z,17.48
2024-05-09T12:28:10.754Z,20.25
2024-05-09T12:30:41.648Z,19.92
2024-05-09T12:33:11.970Z,15.48
2024-05-09T12:35:44.016Z,17.95
2024-05-09T12:38:17.107Z,17.77
2024-05-09T12:40:44.826Z,16.15
2024-05-09T12:45:43.995Z,19.58
2024-05-09T12:48:15.439Z,16.95
2024-05-09T12:50:51.977Z,16.52
2024-05-09T12:53:23.080Z,15.52
2024-05-09T12:55:56.875Z,18.17
2024-05-09T12:58:31.006Z,16.95
2024-05-09T13:00:58.860Z,14.80
2024-05-09T13:03:27.112Z,17.48
2024-05-09T13:05:55.782Z,18.55
2024-05-09T13:08:26.261Z,17.08
2024-05-09T13:10:54.098Z,16.40
2024-05-09T13:13:22.271Z,16.55
2024-05-09T13:15:50.130Z,17.30
2024-05-09T13:18:18.356Z,19.02
2024-05-09T13:20:46.099Z,19.83
2024-05-09T13:25:44.451Z,17.65
2024-05-09T13:28:12.485Z,19.42
2024-05-09T13:30:42.136Z,18.60
2024-05-09T13:33:11.811Z,20.00
2024-05-09T13:35:45.472Z,19.35
2024-05-09T13:38:17.271Z,21.58
2024-05-09T13:40:48.412Z,21.88
2024-05-09T13:43:18.304Z,22.52
2024-05-09T13:45:46.474Z,19.52
2024-05-09T13:48:14.352Z,22.05
2024-05-09T13:53:10.090Z,24.67
2024-05-09T13:55:39.403Z,27.00
2024-05-09T13:58:10.560Z,23.13
2024-05-09T14:00:46.437Z,22.88
2024-05-09T14:03:19.202Z,28.02
2024-05-09T14:05:52.306Z,28.20
2024-05-09T14:08:23.107Z,27.02
2024-05-09T14:10:54.189Z,26.63
2024-05-09T14:13:25.011Z,23.38
2024-05-09T14:15:53.325Z,21.00
2024-05-09T14:18:21.226Z,24.38
2024-05-09T14:20:51.874Z,25.35
2024-05-09T14:23:19.744Z,23.90
2024-05-09T14:25:51.199Z,26.20
2024-05-09T14:28:20.740Z,27.25
2024-05-09T14:30:51.379Z,23.05
2024-05-09T14:33:26.758Z,27.45
2024-05-09T14:35:55.391Z,24.83
2024-05-09T14:38:23.812Z,22.42
2024-05-09T14:40:52.942Z,20.10
2024-05-09T14:43:23.330Z,29.98
2024-05-09T14:45:53.980Z,24.30
2024-05-09T14:48:22.294Z,23.50
2024-05-09T14:50:50.421Z,24.50
2024-05-09T14:53:18.932Z,21.23
2024-05-09T14:55:46.799Z,22.50
2024-05-09T14:58:15.036Z,22.13
2024-05-09T15:00:49.730Z,17.45
2024-05-09T15:03:22.683Z,18.70
2024-05-09T15:05:53.865Z,19.83
2024-05-09T15:08:24.780Z,20.13
2024-05-09T15:10:53.336Z,23.95
2024-05-09T15:13:21.155Z,19.92
2024-05-09T15:15:53.429Z,21.38
2024-05-09T15:18:32.561Z,17.75
2024-05-09T15:21:00.723Z,21.15
2024-05-09T15:23:31.551Z,17.60
2024-05-09T15:25:59.315Z,19.33
2024-05-09T15:30:59.463Z,17.33
2024-05-09T15:33:29.986Z,19.40
2024-05-09T15:35:57.807Z,22.02
2024-05-09T15:38:27.706Z,17.08
2024-05-09T15:40:55.902Z,16.60
2024-05-09T15:43:23.565Z,16.27
2024-05-09T15:48:19.769Z,15.60
2024-05-09T15:50:50.719Z,14.27
2024-05-09T15:53:57.052Z,14.93
2024-05-09T15:56:28.188Z,12.98
2024-05-09T15:58:56.158Z,14.00
2024-05-09T16:01:29.348Z,15.02
2024-05-09T16:03:57.738Z,14.30
2024-05-09T16:06:28.615Z,12.60
2024-05-09T16:08:56.593Z,13.52
2024-05-09T16:11:27.700Z,12.82
2024-05-09T16:13:55.434Z,10.88
2024-05-09T16:18:51.208Z,11.90
2024-05-09T16:21:19.098Z,12.35
2024-05-09T16:23:52.114Z,10.70
2024-05-09T16:26:20.094Z,13.63
2024-05-09T16:28:52.804Z,13.27
2024-05-09T16:31:20.411Z,13.63
2024-05-09T16:33:48.194Z,12.45
2024-05-09T16:36:16.813Z,16.52
2024-05-09T16:38:45.642Z,12.30
2024-05-09T16:41:16.442Z,12.18
2024-05-09T16:43:44.268Z,14.13
2024-05-09T16:46:15.031Z,15.98
2024-05-09T16:48:46.569Z,17.00
2024-05-09T16:51:14.109Z,13.95
2024-05-09T16:53:41.708Z,14.77
2024-05-09T16:56:09.621Z,12.63
2024-05-09T16:58:41.559Z,13.10
2024-05-09T17:01:13.848Z,13.73
2024-05-09T17:03:41.875Z,12.88
2024-05-09T17:06:11.068Z,13.70
2024-05-09T17:08:40.645Z,12.40
2024-05-09T17:11:08.408Z,16.25
2024-05-09T17:16:24.300Z,13.57
2024-05-09T17:18:52.330Z,14.27
2024-05-09T17:21:20.674Z,15.85
2024-05-09T17:23:49.223Z,18.10
2024-05-09T17:26:17.154Z,16.23
2024-05-09T17:28:44.841Z,15.77
2024-05-09T17:33:43.114Z,14.93
2024-05-09T17:36:11.239Z,17.65
2024-05-09T17:38:39.724Z,13.80
2024-05-09T17:41:07.947Z,17.55
2024-05-09T17:43:35.932Z,17.45
2024-05-09T17:46:07.338Z,16.00
2024-05-09T17:48:36.273Z,14.98
2024-05-09T17:51:07.321Z,16.23
2024-05-09T17:53:34.752Z,18.75
2024-05-09T17:56:03.117Z,14.65
2024-05-09T17:58:30.928Z,15.68
2024-05-09T18:00:59.069Z,17.60
2024-05-09T18:03:27.646Z,15.77
2024-05-09T18:05:55.989Z,15.82
2024-05-09T18:08:26.526Z,16.65
2024-05-09T18:10:55.506Z,17.45
2024-05-09T18:13:26.415Z,18.80
2024-05-09T18:15:54.713Z,19.13
2024-05-09T18:18:22.357Z,15.02
2024-05-09T18:23:21.452Z,18.95
2024-05-09T18:25:54.920Z,19.55
2024-05-09T18:28:31.946Z,17.17
2024-05-09T18:30:59.894Z,21.15
2024-05-09T18:33:34.753Z,19.25
2024-05-09T18:36:02.390Z,17.35
2024-05-09T18:38:30.035Z,16.85
2024-05-09T18:41:00.643Z,13.38
2024-05-09T18:43:38.216Z,14.27
2024-05-09T18:46:12.251Z,14.10
2024-05-09T18:51:08.100Z,13.52
2024-05-09T18:56:07.417Z,14.75
2024-05-09T18:58:34.947Z,15.18
2024-05-09T19:01:02.877Z,17.42
2024-05-09T19:03:33.432Z,16.30
2024-05-09T19:06:01.837Z,16.65
2024-05-09T19:08:29.350Z,17.75
2024-05-09T19:10:59.437Z,17.30
2024-05-09T19:13:30.025Z,18.80
2024-05-09T19:15:57.486Z,15.85
2024-05-09T19:18:25.463Z,16.90
2024-05-09T19:20:53.491Z,17.77
2024-05-09T19:23:21.550Z,16.45
2024-05-09T19:25:50.294Z,15.73
2024-05-09T19:28:18.075Z,15.45
2024-05-09T19:33:15.923Z,16.35
2024-05-09T19:35:44.219Z,16.08
2024-05-09T19:38:12.344Z,17.60
2024-05-09T19:43:07.744Z,18.55
2024-05-09T19:45:36.228Z,15.70
2024-05-09T19:48:08.218Z,14.63
2024-05-09T19:50:41.805Z,21.35
2024-05-09T19:53:12.353Z,28.45
2024-05-09T19:55:40.332Z,28.52
2024-05-09T19:58:09.831Z,26.48
2024-05-09T20:00:40.765Z,27.67
2024-05-09T20:03:15.252Z,23.10
2024-05-09T20:05:45.511Z,22.48
2024-05-09T20:08:13.691Z,21.60
2024-05-09T20:10:42.280Z,23.98
2024-05-09T20:13:13.861Z,22.40
2024-05-09T20:15:43.663Z,22.52
2024-05-09T20:18:18.251Z,23.05
2024-05-09T20:20:47.279Z,19.90
2024-05-09T20:23:16.125Z,20.00
2024-05-09T20:25:44.016Z,17.77
2024-05-09T20:28:12.084Z,18.17
2024-05-09T20:30:39.703Z,18.67
2024-05-09T20:33:08.788Z,19.27
2024-05-09T20:35:40.515Z,19.40
2024-05-09T20:38:08.315Z,19.05
2024-05-09T20:40:38.766Z,20.17
2024-05-09T20:43:09.946Z,16.15
2024-05-09T20:45:39.840Z,19.55
2024-05-09T20:48:09.754Z,20.10
2024-05-09T20:50:42.622Z,18.60
2024-05-09T20:53:13.014Z,21.25
2024-05-09T20:55:41.721Z,21.77
2024-05-09T20:58:10.287Z,20.40
2024-05-09T21:00:44.437Z,20.40
2024-05-09T21:03:15.950Z,21.35
2024-05-09T21:05:49.036Z,21.45
2024-05-09T21:08:16.874Z,22.98
2024-05-09T21:10:44.717Z,24.50
2024-05-09T21:13:14.714Z,22.40
2024-05-09T21:15:45.270Z,22.25
2024-05-09T21:18:13.096Z,29.52
2024-05-09T21:20:43.423Z,29.95
2024-05-09T21:23:13.678Z,25.02
2024-05-09T21:25:41.818Z,25.70
2024-05-09T21:28:09.634Z,30.02
2024-05-09T21:30:41.813Z,27.02
2024-05-09T21:33:13.465Z,27.33
2024-05-09T21:35:42.839Z,26.05
2024-05-09T21:38:14.651Z,25.00
2024-05-09T21:40:42.925Z,24.25
2024-05-09T21:43:10.649Z,24.60
2024-05-09T21:45:38.450Z,26.58
2024-05-09T21:48:08.482Z,23.55
2024-05-09T21:50:40.761Z,27.95
2024-05-09T21:53:13.739Z,24.27
2024-05-09T21:55:42.107Z,25.63
2024-05-09T21:58:10.691Z,26.25
2024-05-09T22:00:43.046Z,26.15
2024-05-09T22:03:12.018Z,27.05
2024-05-09T22:05:42.558Z,26.42
2024-05-09T22:08:12.958Z,25.70
2024-05-09T22:10:41.111Z,26.52
2024-05-09T22:13:09.091Z,24.48
2024-05-09T22:15:39.657Z,26.08
2024-05-09T22:18:09.880Z,24.23
2024-05-09T22:20:45.207Z,29.95
2024-05-09T22:23:16.676Z,28.35
2024-05-09T22:25:44.633Z,26.33
2024-05-09T22:28:14.247Z,28.20
2024-05-09T22:30:44.150Z,27.15
2024-05-09T22:33:12.850Z,26.42
2024-05-09T22:35:41.142Z,27.00
2024-05-09T22:38:09.434Z,25.33
2024-05-09T22:40:47.381Z,27.00
2024-05-09T22:43:19.971Z,27.58
2024-05-09T22:45:48.407Z,27.63
2024-05-09T22:48:16.495Z,29.55
2024-05-09T22:50:43.981Z,27.95
2024-05-09T22:53:11.578Z,29.40
2024-05-09T22:55:41.915Z,24.05
2024-05-09T22:58:09.679Z,26.13
2024-05-09T23:03:05.550Z,25.40
2024-05-09T23:05:33.249Z,27.83
2024-05-09T23:08:01.620Z,23.15
2024-05-09T23:10:35.728Z,26.05
2024-05-09T23:13:08.913Z,27.40
2024-05-09T23:15:38.057Z,26.85
2024-05-09T23:18:09.951Z,27.58
2024-05-09T23:20:39.789Z,30.65
2024-05-09T23:23:09.777Z,24.73
2024-05-09T23:25:38.802Z,29.60
2024-05-09T23:30:42.546Z,30.27
2024-05-09T23:33:12.895Z,28.60
2024-05-09T23:35:44.611Z,23.40
2024-05-09T23:38:12.954Z,24.48
2024-05-09T23:40:41.956Z,21.75
2024-05-09T23:43:14.111Z,20.42
2024-05-09T23:45:44.846Z,19.80
2024-05-09T23:48:12.735Z,18.70
2024-05-09T23:53:12.104Z,19.15
2024-05-09T23:55:40.094Z,18.52
